Marie S. Settoon — WDD4716 — position and weather

sailwx.info

Track history (hours):
 
Tides and Currents Weather Stations Pressure Air Temp Water Temp Dewpoint Dewpoint Depression Visibility Wind Speed Wind Dir Waves Ship Positions

Marie S. Settoon

Owner: Settoon Towing LLC, Houma, LA. More information available from US FCC via Universal Licensing System and Coast Guard Vessel Documentation Center.

Last reported at 2017-Dec-11 06:05 UTC. Time now 2017-Dec-18 05:15 UTC.
Position N 29°14' W 090°40'.

Length 17 m; draft 3.5 m.

Type: Tug. MMSI: 367003170.

Date/timePositionNaut miles runAvg speedWind from/ knotsBaromVisibWave heightAir tempDewpointWater temp
2017-Dec-11 06:05N 29°14' W 090°40'1 7.1
2017-Dec-11 06:00N 29°14' W 090°40'4 6.9
2017-Dec-11 05:29N 29°18' W 090°43'3 6.5
2017-Dec-11 04:58N 29°21' W 090°44'3 6.6
2017-Dec-11 04:26N 29°24' W 090°44'3 6.7
2017-Dec-11 04:00N 29°27' W 090°43'3 6.9
2017-Dec-11 03:30N 29°30' W 090°43'3 6.7
2017-Dec-11 03:00N 29°34' W 090°43'1 2.7
2017-Dec-11 02:30N 29°35' W 090°43'2 3.3
2017-Dec-11 02:00N 29°34' W 090°45'3 6.5
2017-Dec-11 01:30N 29°32' W 090°48'4 7.0
2017-Dec-11 00:58N 29°32' W 090°52'3 7.1
2017-Dec-11 00:30N 29°34' W 090°56'  
2017-Dec-06 23:19N 29°53' W 091°55'  
2017-Dec-03 17:40N 29°33' W 090°28'1 7.0
2017-Dec-03 17:30N 29°34' W 090°29'3 6.9
2017-Dec-03 17:00N 29°34' W 090°33'3 6.0
2017-Dec-03 16:30N 29°35' W 090°37'3 6.4
2017-Dec-03 16:00N 29°36' W 090°40'2 4.0
2017-Dec-03 15:30N 29°37' W 090°42'2 3.2
2017-Dec-03 15:00N 29°35' W 090°43'2 3.2
2017-Dec-03 14:30N 29°34' W 090°44'1 2.7
2017-Dec-03 14:00N 29°33' W 090°45'1 1.2
2017-Dec-03 13:30N 29°33' W 090°45'0 0.0
2017-Dec-03 13:00N 29°33' W 090°45'0 0.0
2017-Dec-03 12:30N 29°33' W 090°45'0 0.0
2017-Dec-03 12:00N 29°33' W 090°45'0 0.0
2017-Dec-03 11:30N 29°33' W 090°45'0 0.0
2017-Dec-03 11:00N 29°33' W 090°45'0 0.0
2017-Dec-03 10:30N 29°33' W 090°45'0 0.0
2017-Dec-03 10:00N 29°33' W 090°45'0 0.0
2017-Dec-03 09:30N 29°33' W 090°45'0 0.0
2017-Dec-03 09:00N 29°33' W 090°45'0 0.0
2017-Dec-03 08:30N 29°33' W 090°45'0 0.0
2017-Dec-03 08:00N 29°33' W 090°45'0 0.0
2017-Dec-03 07:30N 29°33' W 090°45'0 0.0
2017-Dec-03 07:00N 29°33' W 090°45'0 0.0
2017-Dec-03 06:30N 29°33' W 090°45'0 0.0
2017-Dec-03 06:00N 29°33' W 090°45'0 0.0
2017-Dec-03 05:30N 29°33' W 090°45'0 0.0
2017-Dec-03 05:00N 29°33' W 090°45'2 3.2
2017-Dec-03 04:30N 29°32' W 090°47'6 6.9
2017-Dec-03 03:40N 29°33' W 090°54'3 0.4
2017-Dec-02 20:23N 29°32' W 090°50'2 5.8
2017-Dec-02 20:00N 29°32' W 090°48'3 5.1
2017-Dec-02 19:30N 29°33' W 090°45'2 4.5
2017-Dec-02 19:00N 29°35' W 090°43'0 0.6
2017-Dec-02 18:30N 29°35' W 090°43'0 0.2
2017-Dec-02 18:00N 29°35' W 090°43'2 3.9
2017-Dec-02 17:30N 29°37' W 090°42'2 4.1
2017-Dec-02 17:00N 29°36' W 090°40'3 5.6
2017-Dec-02 16:30N 29°35' W 090°37'  
Track history (hours):
 
Tides and Currents Weather Stations Pressure Air Temp Water Temp Dewpoint Dewpoint Depression Visibility Wind Speed Wind Dir Waves Ship Positions

Marie S. Settoon

Owner: Settoon Towing LLC, Houma, LA. More information available from US FCC via Universal Licensing System and Coast Guard Vessel Documentation Center.

Last reported at 2017-Dec-11 06:05 UTC. Time now 2017-Dec-18 05:15 UTC.
Position N 29°14' W 090°40'.

Length 17 m; draft 3.5 m.

Type: Tug. MMSI: 367003170.

Date/timePositionNaut miles runAvg speedWind from/ knotsBaromVisibWave heightAir tempDewpointWater temp
2017-Dec-11 06:05N 29°14' W 090°40'1 7.1
2017-Dec-11 06:00N 29°14' W 090°40'4 6.9
2017-Dec-11 05:29N 29°18' W 090°43'3 6.5
2017-Dec-11 04:58N 29°21' W 090°44'3 6.6
2017-Dec-11 04:26N 29°24' W 090°44'3 6.7
2017-Dec-11 04:00N 29°27' W 090°43'3 6.9
2017-Dec-11 03:30N 29°30' W 090°43'3 6.7
2017-Dec-11 03:00N 29°34' W 090°43'1 2.7
2017-Dec-11 02:30N 29°35' W 090°43'2 3.3
2017-Dec-11 02:00N 29°34' W 090°45'3 6.5
2017-Dec-11 01:30N 29°32' W 090°48'4 7.0
2017-Dec-11 00:58N 29°32' W 090°52'3 7.1
2017-Dec-11 00:30N 29°34' W 090°56'  
2017-Dec-06 23:19N 29°53' W 091°55'  
2017-Dec-03 17:40N 29°33' W 090°28'1 7.0
2017-Dec-03 17:30N 29°34' W 090°29'3 6.9
2017-Dec-03 17:00N 29°34' W 090°33'3 6.0
2017-Dec-03 16:30N 29°35' W 090°37'3 6.4
2017-Dec-03 16:00N 29°36' W 090°40'2 4.0
2017-Dec-03 15:30N 29°37' W 090°42'2 3.2
2017-Dec-03 15:00N 29°35' W 090°43'2 3.2
2017-Dec-03 14:30N 29°34' W 090°44'1 2.7
2017-Dec-03 14:00N 29°33' W 090°45'1 1.2
2017-Dec-03 13:30N 29°33' W 090°45'0 0.0
2017-Dec-03 13:00N 29°33' W 090°45'0 0.0
2017-Dec-03 12:30N 29°33' W 090°45'0 0.0
2017-Dec-03 12:00N 29°33' W 090°45'0 0.0
2017-Dec-03 11:30N 29°33' W 090°45'0 0.0
2017-Dec-03 11:00N 29°33' W 090°45'0 0.0
2017-Dec-03 10:30N 29°33' W 090°45'0 0.0
2017-Dec-03 10:00N 29°33' W 090°45'0 0.0
2017-Dec-03 09:30N 29°33' W 090°45'0 0.0
2017-Dec-03 09:00N 29°33' W 090°45'0 0.0
2017-Dec-03 08:30N 29°33' W 090°45'0 0.0
2017-Dec-03 08:00N 29°33' W 090°45'0 0.0
2017-Dec-03 07:30N 29°33' W 090°45'0 0.0
2017-Dec-03 07:00N 29°33' W 090°45'0 0.0
2017-Dec-03 06:30N 29°33' W 090°45'0 0.0
2017-Dec-03 06:00N 29°33' W 090°45'0 0.0
2017-Dec-03 05:30N 29°33' W 090°45'0 0.0
2017-Dec-03 05:00N 29°33' W 090°45'2 3.2
2017-Dec-03 04:30N 29°32' W 090°47'6 6.9
2017-Dec-03 03:40N 29°33' W 090°54'3 0.4
2017-Dec-02 20:23N 29°32' W 090°50'2 5.8
2017-Dec-02 20:00N 29°32' W 090°48'3 5.1
2017-Dec-02 19:30N 29°33' W 090°45'2 4.5
2017-Dec-02 19:00N 29°35' W 090°43'0 0.6
2017-Dec-02 18:30N 29°35' W 090°43'0 0.2
2017-Dec-02 18:00N 29°35' W 090°43'2 3.9
2017-Dec-02 17:30N 29°37' W 090°42'2 4.1
2017-Dec-02 17:00N 29°36' W 090°40'3 5.6
2017-Dec-02 16:30N 29°35' W 090°37'  

Dump ship's entire track history